This is the latest recevied weather packets stored in our database for station/object EA5GTE-12. If no packets are shown the sender has not sent any weather packets the latest 10 day(s).
| Time | Temp. | Humidity | Pressure | Rain* | Wind** | Luminosity | Snow |
|---|---|---|---|---|---|---|---|
| 1787870302 | 18.33° C | 40% | 940.8 hPa | - | - | - | - |
| 1787868501 | 19.44° C | 34% | 940.5 hPa | - | - | - | - |
| 1787867601 | 19.44° C | 35% | 940.6 hPa | - | - | - | - |
| 1787866701 | 19.44° C | 36% | 940.7 hPa | - | - | - | - |
| 1787865801 | 19.44° C | 36% | 940.9 hPa | - | - | - | - |
| 1787864901 | 19.44° C | 35% | 940.8 hPa | - | - | - | - |
| 1787864001 | 19.44° C | 35% | 940.9 hPa | - | - | - | - |
| 1787863101 | 20° C | 42% | 940.7 hPa | - | - | - | - |
| 1787862201 | 19.44° C | 54% | 940.2 hPa | - | - | - | - |
| 1787861301 | 20° C | 54% | 939.6 hPa | - | - | - | - |
| 1787860401 | 20° C | 54% | 939.3 hPa | - | - | - | - |
| 1787859501 | 20.56° C | 52% | 939 hPa | - | - | - | - |
| 1787858601 | 21.67° C | 36% | 938.6 hPa | - | - | - | - |
| 1787857701 | 22.22° C | 38% | 938.5 hPa | - | - | - | - |
| 1787856801 | 22.78° C | 37% | 938 hPa | - | - | - | - |
| 1787855901 | 22.78° C | 36% | 937.8 hPa | - | - | - | - |
| 1787855001 | 23.33° C | 38% | 937.4 hPa | - | - | - | - |
| 1787854101 | 23.89° C | 38% | 937.1 hPa | - | - | - | - |
| 1787853201 | 24.44° C | 39% | 936.9 hPa | - | - | - | - |
| 1787852301 | 25° C | 40% | 936.3 hPa | - | - | - | - |
| 1787851400 | 25° C | 38% | 936.3 hPa | - | - | - | - |
| 1787850500 | 25.56° C | 35% | 936.3 hPa | - | - | - | - |
| 1787849600 | 26.11° C | 33% | 936.2 hPa | - | - | - | - |
| 1787848700 | 26.11° C | 32% | 935.8 hPa | - | - | - | - |
| 1787846902 | 27.22° C | 32% | 935.6 hPa | - | - | - | - |
* Rain since midnight (hover to see other rain measurements)
** Current wind speed in m/s (hover to see current wind gust speed)